Time;durP1;ratioP1;P1;durP2;ratioP2;P2;SDS_P1;SDS_P2;PMS_P1;PMS_P2;Temp;Humidity;BMP_temperature;BMP_pressure;BME280_temperature;BME280_humidity;BME280_pressure;Samples;Min_cycle;Max_cycle;Signal;HPM_P1;HPM_P2
2022/04/23 00:00:10;;;;;;;17.55;13.25;;;10.50;89.40;;;;;;4169336;28;20832;-78
2022/04/23 00:02:12;;;;;;;15.63;12.73;;;10.50;89.40;;;;;;4184502;28;20062;-78
2022/04/23 00:04:14;;;;;;;18.45;13.23;;;10.50;89.50;;;;;;4188898;28;20793;-79
2022/04/23 00:06:15;;;;;;;14.50;13.00;;;10.50;89.80;;;;;;4199169;28;20073;-79
2022/04/23 00:08:17;;;;;;;16.10;12.85;;;10.50;90.00;;;;;;4187641;28;20717;-78
2022/04/23 00:10:20;;;;;;;17.52;13.68;;;10.40;90.10;;;;;;4184928;28;20084;-78
2022/04/23 00:12:23;;;;;;;19.42;12.10;;;10.40;90.20;;;;;;4186836;28;20089;-78
2022/04/23 00:14:26;;;;;;;14.40;12.52;;;10.30;90.30;;;;;;4186511;28;20057;-78
2022/04/23 00:16:27;;;;;;;15.65;13.07;;;10.30;90.40;;;;;;4187333;28;20101;-78
2022/04/23 00:18:29;;;;;;;15.07;11.93;;;10.30;90.60;;;;;;4180437;28;20061;-78
2022/04/23 00:20:31;;;;;;;17.42;12.93;;;10.20;90.70;;;;;;4187172;28;20156;-78
2022/04/23 00:22:36;;;;;;;16.70;12.93;;;10.30;90.70;;;;;;4182938;28;20057;-78
2022/04/23 00:24:37;;;;;;;14.30;12.52;;;10.20;90.70;;;;;;4189602;28;20831;-79
2022/04/23 00:26:40;;;;;;;17.45;12.95;;;10.20;90.70;;;;;;4192091;28;20054;-78
2022/04/23 00:28:42;;;;;;;14.77;12.95;;;10.20;91.00;;;;;;4184349;28;20053;-78
2022/04/23 00:30:47;;;;;;;14.23;12.68;;;10.20;91.20;;;;;;4183630;28;20092;-79
2022/04/23 00:32:49;;;;;;;15.35;13.43;;;10.10;91.40;;;;;;4186507;28;20103;-78
2022/04/23 00:34:51;;;;;;;17.35;12.85;;;10.00;91.70;;;;;;4171845;28;20140;-79
2022/04/23 00:36:52;;;;;;;15.18;13.57;;;10.00;91.70;;;;;;4183155;28;20095;-78
2022/04/23 00:38:54;;;;;;;16.55;13.38;;;10.00;91.90;;;;;;4171209;28;20096;-78
2022/04/23 00:40:56;;;;;;;16.17;12.93;;;9.90;91.90;;;;;;4185128;28;20089;-78
2022/04/23 00:42:58;;;;;;;16.35;12.80;;;9.90;92.00;;;;;;4173830;28;20057;-78
2022/04/23 00:45:00;;;;;;;16.17;13.63;;;9.90;92.20;;;;;;4187658;28;20060;-78
2022/04/23 00:47:02;;;;;;;15.68;11.82;;;9.90;92.40;;;;;;4188075;28;20100;-79
2022/04/23 00:49:05;;;;;;;15.57;12.80;;;9.80;92.60;;;;;;4188096;28;20124;-78
2022/04/23 00:51:07;;;;;;;17.10;12.82;;;9.80;92.90;;;;;;4182001;28;20103;-79
2022/04/23 00:53:10;;;;;;;17.95;13.18;;;9.80;93.10;;;;;;4187570;28;20101;-78
2022/04/23 00:55:13;;;;;;;16.75;12.82;;;9.80;93.30;;;;;;4191278;28;20915;-79
2022/04/23 00:57:14;;;;;;;14.73;12.40;;;9.80;93.20;;;;;;4191063;28;20096;-78
2022/04/23 00:59:16;;;;;;;15.23;12.60;;;9.80;93.20;;;;;;4187871;28;20184;-78
2022/04/23 01:01:23;;;;;;;14.20;11.52;;;9.80;93.60;;;;;;4182214;28;20057;-78
2022/04/23 01:03:25;;;;;;;19.65;13.98;;;9.70;94.10;;;;;;4162497;28;20872;-78
2022/04/23 01:05:27;;;;;;;14.10;11.50;;;9.70;94.40;;;;;;4193703;28;20065;-78
2022/04/23 01:07:29;;;;;;;16.52;12.35;;;9.70;94.50;;;;;;4192208;28;20057;-79
2022/04/23 01:09:31;;;;;;;14.40;12.50;;;9.60;94.80;;;;;;4189855;28;20080;-79
2022/04/23 01:11:33;;;;;;;16.95;12.45;;;9.60;95.20;;;;;;4185058;28;20093;-80
2022/04/23 01:13:35;;;;;;;14.48;11.10;;;9.50;95.50;;;;;;4190621;28;20654;-79
2022/04/23 01:15:37;;;;;;;15.18;12.60;;;9.50;95.50;;;;;;4185810;28;20099;-78
2022/04/23 01:17:39;;;;;;;14.25;12.75;;;9.50;95.80;;;;;;4185050;28;20061;-78
2022/04/23 01:19:41;;;;;;;15.55;11.57;;;9.50;96.10;;;;;;4193960;28;20097;-79
2022/04/23 01:21:43;;;;;;;14.23;11.68;;;9.40;96.30;;;;;;4184828;28;20057;-78
2022/04/23 01:23:52;;;;;;;14.07;11.93;;;9.40;96.50;;;;;;4186583;28;20061;-78
2022/04/23 01:25:54;;;;;;;17.80;12.18;;;9.40;96.80;;;;;;4189325;28;20057;-78
2022/04/23 01:27:56;;;;;;;15.18;12.13;;;9.30;97.10;;;;;;4192822;28;20092;-78
2022/04/23 01:29:58;;;;;;;13.25;11.85;;;9.30;97.50;;;;;;4189149;28;20058;-79
2022/04/23 01:32:03;;;;;;;13.95;12.27;;;9.30;97.60;;;;;;4192574;28;20761;-79
2022/04/23 01:34:04;;;;;;;15.63;12.80;;;9.30;97.70;;;;;;4186295;28;20057;-79
2022/04/23 01:36:06;;;;;;;13.48;12.07;;;9.20;97.80;;;;;;4190646;28;20037;-78
2022/04/23 01:38:08;;;;;;;15.93;12.35;;;9.10;98.20;;;;;;4175451;28;20168;-78
2022/04/23 01:40:11;;;;;;;16.27;12.57;;;9.10;98.90;;;;;;4184059;28;20056;-78
2022/04/23 01:42:17;;;;;;;15.05;13.30;;;9.10;98.70;;;;;;4188417;28;20152;-79
2022/04/23 01:44:19;;;;;;;13.98;12.00;;;9.10;98.90;;;;;;4184615;28;20871;-78
2022/04/23 01:46:21;;;;;;;19.63;12.70;;;9.10;99.00;;;;;;4192326;28;20156;-78
2022/04/23 01:48:23;;;;;;;19.08;13.10;;;9.00;99.20;;;;;;4188770;28;20130;-78
2022/04/23 01:50:24;;;;;;;14.40;11.15;;;9.10;99.00;;;;;;4169657;28;20133;-79
2022/04/23 01:52:26;;;;;;;16.65;12.30;;;9.10;99.20;;;;;;4182752;28;20085;-78
2022/04/23 01:54:28;;;;;;;15.68;13.57;;;9.10;99.40;;;;;;4184151;28;20785;-79
2022/04/23 01:56:29;;;;;;;13.43;11.85;;;9.00;99.70;;;;;;4190854;28;20089;-78
2022/04/23 01:58:31;;;;;;;20.02;13.40;;;8.90;99.90;;;;;;4181574;28;20065;-79
2022/04/23 02:00:33;;;;;;;13.57;11.93;;;8.80;99.90;;;;;;4184053;28;20057;-78
2022/04/23 02:02:36;;;;;;;19.33;13.75;;;8.80;99.90;;;;;;4182213;28;20115;-78
2022/04/23 02:04:38;;;;;;;16.52;13.63;;;8.80;99.90;;;;;;4191391;28;20760;-78
2022/04/23 02:06:41;;;;;;;19.15;12.80;;;8.80;99.90;;;;;;4187356;28;20092;-79
2022/04/23 02:08:42;;;;;;;15.45;12.77;;;8.70;99.90;;;;;;4184086;28;20189;-79
2022/04/23 02:10:47;;;;;;;18.30;14.00;;;8.70;99.90;;;;;;4187963;28;20057;-78
2022/04/23 02:12:49;;;;;;;19.13;13.80;;;8.60;99.90;;;;;;4170383;28;20058;-79
2022/04/23 02:14:50;;;;;;;15.73;13.95;;;8.60;99.90;;;;;;4177663;28;20072;-78
2022/04/23 02:16:53;;;;;;;21.63;14.80;;;8.60;99.90;;;;;;4186803;28;20068;-78
2022/04/23 02:18:57;;;;;;;18.80;14.27;;;8.60;99.90;;;;;;4188534;28;20057;-78
2022/04/23 02:20:59;;;;;;;16.88;13.65;;;8.60;99.90;;;;;;4181705;28;20088;-79
2022/04/23 02:23:01;;;;;;;16.70;13.85;;;8.60;99.90;;;;;;4189069;28;20058;-78
2022/04/23 02:25:06;;;;;;;19.35;15.02;;;8.60;99.90;;;;;;4168131;28;20120;-78
2022/04/23 02:27:08;;;;;;;17.20;14.48;;;8.60;99.90;;;;;;4184693;28;20053;-78
2022/04/23 02:29:11;;;;;;;17.42;14.30;;;8.60;99.90;;;;;;4193253;28;20049;-77
2022/04/23 02:31:13;;;;;;;17.65;15.40;;;8.70;99.90;;;;;;4194648;28;20062;-77
2022/04/23 02:33:14;;;;;;;16.48;14.43;;;8.70;99.90;;;;;;4185895;28;20128;-77
2022/04/23 02:35:18;;;;;;;21.67;16.73;;;8.60;99.90;;;;;;4186683;28;20093;-78
2022/04/23 02:37:20;;;;;;;23.67;15.05;;;8.60;99.90;;;;;;4183178;28;20152;-78
2022/04/23 02:39:22;;;;;;;19.08;15.38;;;8.50;99.90;;;;;;4189355;28;20076;-78
2022/04/23 02:41:24;;;;;;;21.67;16.05;;;8.40;99.90;;;;;;4184049;28;21051;-77
2022/04/23 02:43:26;;;;;;;17.73;15.25;;;8.40;99.90;;;;;;4184810;28;20100;-78
2022/04/23 02:45:27;;;;;;;18.58;15.55;;;8.30;99.90;;;;;;4186431;28;20100;-77
2022/04/23 02:47:40;;;;;;;20.83;15.20;;;8.30;99.90;;;;;;4179868;28;20100;-77
2022/04/23 02:49:42;;;;;;;20.20;16.77;;;8.30;99.90;;;;;;4186286;28;20061;-77
2022/04/23 02:51:44;;;;;;;22.50;16.42;;;8.20;99.90;;;;;;4184760;28;20181;-77
2022/04/23 02:53:45;;;;;;;19.92;16.17;;;8.30;99.90;;;;;;4186146;28;21069;-77
2022/04/23 02:55:48;;;;;;;19.50;16.77;;;8.30;99.90;;;;;;4182244;28;20049;-78
2022/04/23 02:57:50;;;;;;;19.20;15.30;;;8.30;99.90;;;;;;4180617;28;20062;-77
2022/04/23 02:59:52;;;;;;;18.88;15.10;;;8.30;99.90;;;;;;4185277;28;20057;-78
2022/04/23 03:01:54;;;;;;;21.98;15.02;;;8.30;99.90;;;;;;4192587;28;20057;-77
2022/04/23 03:03:56;;;;;;;17.83;14.65;;;8.30;99.90;;;;;;4182527;28;21477;-78
2022/04/23 03:05:58;;;;;;;18.30;15.60;;;8.30;99.90;;;;;;4187417;28;20061;-77
2022/04/23 03:08:00;;;;;;;18.13;14.63;;;8.30;99.90;;;;;;4191681;28;20168;-77
2022/04/23 03:10:06;;;;;;;17.65;15.35;;;8.30;99.90;;;;;;4165869;28;20121;-78
2022/04/23 03:12:09;;;;;;;19.98;16.30;;;8.30;99.90;;;;;;4185753;28;20172;-77
2022/04/23 03:14:10;;;;;;;17.58;15.25;;;8.30;99.90;;;;;;4187183;28;20146;-78
2022/04/23 03:16:12;;;;;;;20.80;14.95;;;8.30;99.90;;;;;;4185518;28;20101;-77
2022/04/23 03:18:14;;;;;;;19.15;15.82;;;8.30;99.90;;;;;;4185110;28;20053;-77
2022/04/23 03:20:16;;;;;;;18.77;15.80;;;8.20;99.90;;;;;;4191441;28;20084;-77
2022/04/23 03:22:20;;;;;;;21.08;16.90;;;8.30;99.90;;;;;;4184042;28;20788;-77
2022/04/23 03:24:22;;;;;;;22.80;17.48;;;8.20;99.90;;;;;;4181602;28;20204;-77
2022/04/23 03:26:24;;;;;;;22.48;17.52;;;8.20;99.90;;;;;;4181491;28;20100;-78
2022/04/23 03:28:26;;;;;;;21.55;17.30;;;8.20;99.90;;;;;;4184110;28;20092;-77
2022/04/23 03:30:28;;;;;;;23.17;18.48;;;8.10;99.90;;;;;;4168684;28;20781;-78
2022/04/23 03:32:31;;;;;;;23.75;17.92;;;8.00;99.90;;;;;;4183890;28;20100;-77
2022/04/23 03:34:33;;;;;;;21.40;17.45;;;8.00;99.90;;;;;;4193224;28;20631;-78
2022/04/23 03:36:35;;;;;;;28.88;17.92;;;8.10;99.90;;;;;;4195103;28;20053;-78
2022/04/23 03:38:37;;;;;;;24.23;18.58;;;8.00;99.90;;;;;;4172518;28;20086;-77
2022/04/23 03:40:39;;;;;;;25.60;18.88;;;7.90;99.90;;;;;;4186442;28;20089;-78
2022/04/23 03:42:42;;;;;;;22.67;17.38;;;7.90;99.90;;;;;;4185244;28;20631;-78
2022/04/23 03:44:44;;;;;;;21.92;18.17;;;7.90;99.90;;;;;;4190228;28;20109;-77
2022/04/23 03:46:46;;;;;;;22.85;17.92;;;7.90;99.90;;;;;;4193692;28;20060;-77
2022/04/23 03:48:47;;;;;;;21.73;18.05;;;7.90;99.90;;;;;;4170251;28;20097;-77
2022/04/23 03:50:49;;;;;;;21.27;17.75;;;7.90;99.90;;;;;;4217104;22;20045;-79
2022/04/23 03:52:51;;;;;;;22.02;18.63;;;7.90;99.90;;;;;;4201723;28;20072;-78
2022/04/23 03:54:52;;;;;;;24.42;18.27;;;8.00;99.90;;;;;;4202620;28;20045;-79
2022/04/23 03:56:54;;;;;;;19.98;17.52;;;8.00;99.90;;;;;;4199786;28;20846;-79
2022/04/23 03:58:56;;;;;;;21.00;17.63;;;8.00;99.90;;;;;;4193226;28;20849;-79
2022/04/23 04:00:58;;;;;;;21.00;17.52;;;8.00;99.90;;;;;;4194392;28;20151;-79
2022/04/23 04:03:00;;;;;;;22.40;17.75;;;7.90;99.90;;;;;;4195097;28;20061;-79
2022/04/23 04:05:02;;;;;;;21.60;18.23;;;7.90;99.90;;;;;;4198665;28;20123;-79
2022/04/23 04:07:05;;;;;;;20.75;17.95;;;7.90;99.90;;;;;;4199834;28;20164;-80
2022/04/23 04:09:07;;;;;;;26.75;18.25;;;7.90;99.90;;;;;;4187573;28;20757;-78
2022/04/23 04:11:09;;;;;;;22.35;17.17;;;7.90;99.90;;;;;;4195434;28;20104;-80
2022/04/23 04:13:11;;;;;;;19.92;16.15;;;7.90;99.90;;;;;;4201913;28;20623;-78
2022/04/23 04:15:15;;;;;;;20.25;17.35;;;7.90;99.90;;;;;;4193693;28;20158;-79
2022/04/23 04:17:17;;;;;;;22.42;17.33;;;8.00;99.90;;;;;;4193469;28;20052;-79
2022/04/23 04:19:19;;;;;;;24.17;19.00;;;7.90;99.90;;;;;;4183212;28;20058;-79
2022/04/23 04:21:21;;;;;;;23.20;18.85;;;8.00;99.90;;;;;;4197825;28;20049;-79
2022/04/23 04:23:24;;;;;;;21.45;17.63;;;8.10;99.90;;;;;;4196097;28;20053;-79
2022/04/23 04:25:26;;;;;;;22.15;17.50;;;8.10;99.90;;;;;;4195892;28;20049;-79
2022/04/23 04:27:28;;;;;;;22.17;17.85;;;8.00;99.90;;;;;;4206389;28;20079;-79
2022/04/23 04:29:31;;;;;;;21.40;17.17;;;8.10;99.90;;;;;;4199501;28;20069;-80
2022/04/23 04:31:50;;;;;;;20.17;16.67;;;8.10;99.90;;;;;;4207978;28;20053;-79
2022/04/23 04:33:51;;;;;;;20.65;16.83;;;8.10;99.90;;;;;;4194443;28;20049;-80
2022/04/23 04:35:53;;;;;;;21.67;17.42;;;8.10;99.90;;;;;;4203413;28;20084;-79
2022/04/23 04:37:56;;;;;;;21.88;18.02;;;8.20;99.90;;;;;;4204262;28;20064;-79
2022/04/23 04:39:58;;;;;;;20.60;16.02;;;8.20;99.90;;;;;;4203328;28;20104;-78
2022/04/23 04:42:00;;;;;;;18.33;16.27;;;8.10;99.90;;;;;;4201825;28;20878;-79
2022/04/23 04:44:03;;;;;;;18.25;16.08;;;8.10;99.90;;;;;;4195651;28;20057;-79
2022/04/23 04:46:05;;;;;;;21.58;16.75;;;8.20;99.90;;;;;;4194934;28;20797;-79
2022/04/23 04:48:07;;;;;;;17.60;15.35;;;8.20;99.90;;;;;;4186509;28;20135;-79
2022/04/23 04:50:09;;;;;;;18.92;16.08;;;8.30;99.90;;;;;;4195944;28;20148;-78
2022/04/23 04:52:11;;;;;;;20.95;16.60;;;8.30;99.90;;;;;;4199331;28;20041;-77
2022/04/23 04:54:13;;;;;;;20.33;16.83;;;8.40;99.90;;;;;;4207801;28;20061;-79
2022/04/23 04:56:14;;;;;;;17.88;15.98;;;8.40;99.90;;;;;;4199028;28;20045;-79
2022/04/23 04:58:16;;;;;;;21.42;16.63;;;8.50;99.90;;;;;;4197110;28;20103;-80
2022/04/23 05:00:18;;;;;;;18.33;15.48;;;8.60;99.90;;;;;;4199593;28;20056;-78
2022/04/23 05:02:20;;;;;;;18.08;15.75;;;8.60;99.90;;;;;;4205383;28;20041;-76
2022/04/23 05:04:22;;;;;;;17.75;15.50;;;8.70;99.90;;;;;;4209834;28;20088;-78
2022/04/23 05:06:24;;;;;;;18.45;15.23;;;8.80;99.90;;;;;;4206378;28;20095;-78
2022/04/23 05:08:26;;;;;;;17.85;14.82;;;8.90;99.90;;;;;;4202720;28;20063;-79
2022/04/23 05:10:27;;;;;;;16.85;14.23;;;8.90;99.90;;;;;;4199546;28;20049;-78
2022/04/23 05:12:30;;;;;;;17.00;15.18;;;8.90;99.90;;;;;;4198361;28;20077;-78
2022/04/23 05:14:31;;;;;;;17.90;14.85;;;8.80;99.90;;;;;;4202056;28;20092;-79
2022/04/23 05:16:33;;;;;;;18.25;14.50;;;8.80;99.90;;;;;;4184839;28;20054;-78
2022/04/23 05:18:35;;;;;;;21.33;15.50;;;8.80;99.90;;;;;;4184817;28;20061;-79
2022/04/23 05:20:37;;;;;;;19.13;15.02;;;8.90;99.90;;;;;;4201927;28;20060;-78
2022/04/23 05:22:39;;;;;;;18.80;14.63;;;9.00;99.90;;;;;;4185661;28;20066;-78
2022/04/23 05:24:41;;;;;;;18.70;14.70;;;9.00;99.90;;;;;;4201227;28;20083;-78
2022/04/23 05:26:43;;;;;;;17.33;14.32;;;9.00;99.90;;;;;;4205360;28;20056;-78
2022/04/23 05:28:44;;;;;;;17.77;14.48;;;9.00;99.90;;;;;;4185902;28;20081;-78
2022/04/23 05:30:46;;;;;;;17.27;14.88;;;9.00;99.90;;;;;;4202458;28;20171;-79
2022/04/23 05:32:48;;;;;;;17.20;13.55;;;9.10;99.90;;;;;;4200371;28;20092;-78
2022/04/23 05:34:49;;;;;;;18.20;14.52;;;9.10;99.90;;;;;;4203317;28;20057;-78
2022/04/23 05:36:51;;;;;;;16.17;13.82;;;9.20;99.90;;;;;;4192623;28;20061;-78
2022/04/23 05:38:54;;;;;;;16.15;14.43;;;9.20;99.90;;;;;;4196520;28;20155;-79
2022/04/23 05:40:56;;;;;;;17.33;13.85;;;9.30;99.90;;;;;;4196011;28;20053;-79
2022/04/23 05:42:58;;;;;;;18.08;14.20;;;9.30;99.90;;;;;;4198489;28;20052;-79
2022/04/23 05:45:00;;;;;;;20.38;14.77;;;9.30;99.90;;;;;;4196116;28;20859;-79
2022/04/23 05:47:02;;;;;;;15.07;13.50;;;9.30;99.90;;;;;;4195499;28;20800;-78
2022/04/23 05:49:04;;;;;;;15.32;12.98;;;9.40;99.90;;;;;;4188850;28;20066;-78
2022/04/23 05:51:05;;;;;;;17.58;14.38;;;9.30;99.90;;;;;;4196219;28;20054;-79
2022/04/23 05:53:07;;;;;;;17.92;13.07;;;9.30;99.90;;;;;;4199834;28;20087;-79
2022/04/23 05:55:10;;;;;;;14.88;13.30;;;9.30;99.90;;;;;;4195516;28;20091;-80
2022/04/23 05:57:12;;;;;;;14.45;12.38;;;9.30;99.90;;;;;;4190928;28;20788;-80
2022/04/23 05:59:13;;;;;;;14.70;13.05;;;9.30;99.90;;;;;;4196913;28;20049;-78
2022/04/23 06:01:15;;;;;;;15.68;13.55;;;9.30;99.90;;;;;;4200299;28;20854;-78
2022/04/23 06:03:18;;;;;;;16.55;13.27;;;9.30;99.90;;;;;;4207278;28;20057;-79
2022/04/23 06:05:20;;;;;;;14.65;13.00;;;9.30;99.90;;;;;;4197728;28;20057;-79
2022/04/23 06:07:21;;;;;;;15.10;12.82;;;9.30;99.90;;;;;;4191554;28;20099;-78
2022/04/23 06:09:23;;;;;;;14.48;12.70;;;9.40;99.90;;;;;;4182567;28;20093;-80
2022/04/23 06:11:25;;;;;;;16.50;13.02;;;9.40;99.90;;;;;;4192785;28;20100;-80
2022/04/23 06:13:27;;;;;;;14.30;12.63;;;9.40;99.90;;;;;;4201529;28;20045;-77
2022/04/23 06:15:28;;;;;;;15.40;12.95;;;9.40;99.90;;;;;;4198544;28;20054;-78
2022/04/23 06:17:30;;;;;;;13.95;12.30;;;9.40;99.90;;;;;;4197070;28;20091;-78
2022/04/23 06:19:32;;;;;;;15.02;12.27;;;9.40;99.90;;;;;;4201223;28;20057;-79
2022/04/23 06:21:34;;;;;;;14.63;13.00;;;9.50;99.90;;;;;;4201805;28;20083;-79
2022/04/23 06:23:35;;;;;;;14.82;13.05;;;9.60;99.90;;;;;;4194031;28;20058;-79
2022/04/23 06:25:37;;;;;;;13.23;11.68;;;9.50;99.90;;;;;;4197495;28;20053;-79
2022/04/23 06:27:39;;;;;;;16.77;14.43;;;9.40;99.90;;;;;;4194958;28;20080;-78
2022/04/23 06:29:41;;;;;;;15.18;13.30;;;9.30;99.90;;;;;;4197569;28;20061;-79
2022/04/23 06:31:43;;;;;;;15.88;13.20;;;9.30;99.90;;;;;;4191179;28;20178;-78
2022/04/23 06:33:45;;;;;;;14.68;12.10;;;9.30;99.90;;;;;;4194286;28;20140;-79
2022/04/23 06:35:47;;;;;;;16.77;13.90;;;9.30;99.90;;;;;;4200593;28;20061;-79
2022/04/23 06:37:49;;;;;;;14.15;11.93;;;9.30;99.90;;;;;;4201677;28;20057;-79
2022/04/23 06:39:50;;;;;;;14.52;12.68;;;9.30;99.90;;;;;;4198028;28;20122;-79
2022/04/23 06:41:52;;;;;;;13.50;11.90;;;9.40;99.90;;;;;;4198410;28;20760;-79
2022/04/23 06:43:54;;;;;;;13.50;11.23;;;9.40;99.90;;;;;;4201049;28;20843;-78
2022/04/23 06:45:56;;;;;;;13.23;11.88;;;9.50;99.90;;;;;;4178563;28;20140;-78
2022/04/23 06:48:05;;;;;;;14.85;12.00;;;9.50;99.90;;;;;;4201035;28;20088;-78
2022/04/23 06:50:08;;;;;;;13.77;10.88;;;9.60;99.90;;;;;;4207407;28;20754;-78
2022/04/23 06:52:09;;;;;;;12.35;11.05;;;9.60;99.90;;;;;;4207126;28;20060;-78
2022/04/23 06:54:12;;;;;;;12.75;11.45;;;9.60;99.90;;;;;;4204627;28;20758;-79
2022/04/23 06:56:13;;;;;;;12.60;11.35;;;9.60;99.90;;;;;;4202090;28;20773;-77
2022/04/23 06:58:16;;;;;;;12.60;10.32;;;9.60;99.80;;;;;;4200856;28;20823;-79
2022/04/23 07:00:19;;;;;;;11.75;10.55;;;9.50;99.80;;;;;;4195383;28;20642;-76
2022/04/23 07:02:21;;;;;;;12.40;10.63;;;9.50;99.90;;;;;;4188978;28;20127;-74
2022/04/23 07:04:25;;;;;;;11.43;10.20;;;9.40;99.90;;;;;;4190964;28;20130;-74
2022/04/23 07:06:27;;;;;;;11.55;10.45;;;9.40;99.80;;;;;;4173765;28;20117;-75
2022/04/23 07:08:29;;;;;;;11.93;10.73;;;9.40;99.90;;;;;;4191574;28;20144;-74
2022/04/23 07:10:32;;;;;;;12.25;10.98;;;9.50;99.90;;;;;;4196083;28;20111;-74
2022/04/23 07:12:33;;;;;;;10.48;9.38;;;9.50;99.40;;;;;;4192221;28;20175;-74
2022/04/23 07:14:35;;;;;;;11.23;10.02;;;9.60;99.30;;;;;;4197562;28;20160;-75
2022/04/23 07:16:42;;;;;;;12.98;10.23;;;9.60;98.80;;;;;;4194968;28;20064;-74
2022/04/23 07:18:44;;;;;;;10.23;9.27;;;9.60;99.20;;;;;;4196032;28;20063;-75
2022/04/23 07:20:46;;;;;;;10.50;9.50;;;9.60;98.50;;;;;;4195450;28;20171;-75
2022/04/23 07:25:10;;;;;;;11.73;9.82;;;9.80;97.90;;;;;;4190579;28;20103;-75
2022/04/23 07:27:12;;;;;;;10.75;9.40;;;9.80;98.00;;;;;;4191157;28;20096;-75
2022/04/23 07:29:13;;;;;;;10.85;9.80;;;9.80;97.40;;;;;;4188904;28;20111;-75
2022/04/23 07:31:15;;;;;;;11.18;10.13;;;9.80;97.50;;;;;;4191464;28;20065;-75
2022/04/23 07:38:16;;;;;;;10.57;9.57;;;9.80;97.00;;;;;;4189618;28;20122;-75
2022/04/23 07:40:18;;;;;;;10.80;9.70;;;9.90;96.60;;;;;;4196908;28;20694;-75
2022/04/23 07:42:20;;;;;;;10.07;9.18;;;9.90;97.10;;;;;;4194305;28;20053;-75
2022/04/23 07:44:22;;;;;;;10.60;9.60;;;9.90;96.70;;;;;;4201844;28;20929;-75
2022/04/23 07:46:24;;;;;;;10.48;9.38;;;9.90;96.60;;;;;;4200328;28;20048;-74
2022/04/23 07:48:26;;;;;;;9.90;9.00;;;9.80;96.30;;;;;;4189808;28;20156;-75
2022/04/23 07:50:28;;;;;;;10.20;9.23;;;9.90;96.40;;;;;;4190662;28;20061;-76
2022/04/23 07:52:29;;;;;;;9.73;8.82;;;10.00;96.20;;;;;;4190523;28;20156;-76
2022/04/23 07:54:31;;;;;;;10.57;9.48;;;10.00;96.10;;;;;;4189328;28;20077;-75
2022/04/23 07:56:35;;;;;;;10.70;9.60;;;10.00;96.00;;;;;;4181418;28;20093;-76
2022/04/23 07:58:37;;;;;;;10.90;9.68;;;9.90;95.90;;;;;;4192464;28;20188;-75
2022/04/23 08:00:40;;;;;;;11.13;9.95;;;9.80;96.20;;;;;;4191014;28;20156;-76
2022/04/23 08:02:42;;;;;;;10.48;9.48;;;9.80;96.50;;;;;;4182774;28;20058;-76
2022/04/23 08:04:45;;;;;;;10.70;9.68;;;9.90;95.90;;;;;;4193090;28;20057;-75
2022/04/23 08:06:47;;;;;;;10.50;9.40;;;9.90;96.10;;;;;;4202879;28;20174;-75
2022/04/23 08:08:49;;;;;;;10.07;9.18;;;10.00;96.00;;;;;;4193143;28;20053;-75
2022/04/23 08:10:50;;;;;;;10.55;9.55;;;10.10;95.40;;;;;;4187734;28;20159;-76
2022/04/23 08:12:54;;;;;;;10.82;9.73;;;10.10;95.60;;;;;;4187767;28;20062;-75
2022/04/23 08:14:56;;;;;;;10.25;9.25;;;10.20;95.20;;;;;;4173123;28;20062;-75
2022/04/23 08:16:59;;;;;;;9.68;8.68;;;10.30;94.70;;;;;;4193337;28;20064;-76
2022/04/23 08:19:01;;;;;;;15.23;10.60;;;10.20;95.10;;;;;;4189047;28;20053;-75
2022/04/23 08:21:02;;;;;;;11.93;9.85;;;10.30;94.80;;;;;;4184186;28;20912;-75
2022/04/23 08:23:04;;;;;;;10.43;9.38;;;10.40;94.30;;;;;;4190253;28;20138;-74
2022/04/23 08:25:07;;;;;;;10.48;9.38;;;10.50;94.10;;;;;;4191464;28;20107;-76
2022/04/23 08:27:08;;;;;;;10.65;9.55;;;10.40;94.20;;;;;;4198126;28;20062;-75
2022/04/23 08:31:31;;;;;;;13.43;10.05;;;10.60;93.90;;;;;;4190677;28;20064;-74
2022/04/23 08:35:53;;;;;;;10.63;9.55;;;10.60;93.30;;;;;;4187080;28;20084;-74
2022/04/23 08:37:55;;;;;;;11.38;10.10;;;10.70;93.20;;;;;;4191975;28;20141;-76
2022/04/23 08:39:57;;;;;;;10.02;8.98;;;10.60;93.20;;;;;;4184246;28;20635;-75
2022/04/23 08:41:59;;;;;;;10.88;9.68;;;10.50;93.00;;;;;;4186704;28;20052;-75
2022/04/23 08:44:07;;;;;;;11.00;9.35;;;10.60;93.20;;;;;;4188437;28;20104;-74
2022/04/23 08:46:09;;;;;;;9.88;8.93;;;10.70;93.10;;;;;;4184933;28;20101;-74
2022/04/23 08:48:15;;;;;;;11.20;9.00;;;10.90;92.40;;;;;;4188812;28;20061;-76
2022/04/23 08:50:21;;;;;;;10.35;8.60;;;10.90;92.40;;;;;;4190260;28;20100;-74
2022/04/23 08:52:33;;;;;;;10.43;9.35;;;11.10;92.00;;;;;;4189698;28;20741;-76
2022/04/23 08:54:35;;;;;;;10.88;9.15;;;11.20;91.60;;;;;;4185583;28;20148;-76
2022/04/23 08:56:39;;;;;;;10.07;9.07;;;11.20;91.20;;;;;;4189279;28;20057;-76
2022/04/23 08:58:41;;;;;;;11.27;10.18;;;11.10;91.30;;;;;;4198258;28;20216;-74
2022/04/23 09:00:43;;;;;;;10.77;9.63;;;11.10;91.60;;;;;;4192543;28;20804;-75
2022/04/23 09:02:45;;;;;;;11.23;9.10;;;11.10;91.90;;;;;;4188515;28;20068;-75
2022/04/23 09:04:49;;;;;;;11.30;9.82;;;11.20;91.70;;;;;;4194271;28;20064;-75
2022/04/23 09:06:51;;;;;;;11.80;10.07;;;11.20;91.30;;;;;;4192721;28;20056;-73
2022/04/23 09:09:13;;;;;;;11.50;9.52;;;11.10;91.50;;;;;;4188077;28;20054;-74
2022/04/23 09:11:33;;;;;;;9.65;8.65;;;11.10;91.80;;;;;;4187226;28;20057;-74
2022/04/23 09:13:34;;;;;;;11.33;9.70;;;11.00;91.90;;;;;;4190650;28;20114;-74
2022/04/23 09:24:58;;;;;;;10.35;8.43;;;11.50;91.10;;;;;;4187374;28;20942;-74
2022/04/23 09:27:06;;;;;;;10.65;9.55;;;11.50;90.20;;;;;;4196003;28;20219;-74
2022/04/23 09:29:18;;;;;;;12.10;10.32;;;11.40;90.80;;;;;;4196159;28;20803;-74
2022/04/23 09:31:19;;;;;;;10.65;9.05;;;11.30;90.70;;;;;;4186236;28;20155;-73
2022/04/23 09:33:27;;;;;;;12.90;9.77;;;11.10;90.90;;;;;;4187987;28;20691;-74
2022/04/23 09:35:29;;;;;;;10.77;9.55;;;11.10;91.30;;;;;;4188716;28;20053;-74
2022/04/23 09:38:11;;;;;;;11.68;10.15;;;11.10;91.20;;;;;;4186783;28;20069;-75
2022/04/23 09:39:53;;;;;;;11.30;9.35;;;11.10;91.10;;;;;;4185330;28;20100;-74
2022/04/23 09:42:15;;;;;;;11.50;9.27;;;11.10;91.10;;;;;;4186583;28;20137;-75
2022/04/23 09:44:17;;;;;;;10.02;8.88;;;11.20;90.90;;;;;;4185371;28;20844;-74
2022/04/23 09:46:19;;;;;;;9.45;8.48;;;11.10;91.00;;;;;;4166474;28;20065;-73
2022/04/23 09:48:21;;;;;;;9.30;8.25;;;11.10;90.90;;;;;;4185531;28;20132;-73
2022/04/23 09:50:23;;;;;;;12.68;9.20;;;11.20;90.50;;;;;;4206168;22;20890;-68
2022/04/23 09:52:29;;;;;;;10.48;9.10;;;11.20;91.00;;;;;;4184034;28;20108;-65
2022/04/23 09:54:53;;;;;;;10.85;9.75;;;11.30;90.50;;;;;;4184422;28;20118;-65
2022/04/23 09:56:56;;;;;;;10.93;8.65;;;11.40;90.50;;;;;;4185120;28;20084;-66
2022/04/23 09:58:58;;;;;;;14.55;9.10;;;11.60;90.60;;;;;;4186851;28;20088;-68
2022/04/23 10:01:00;;;;;;;11.35;9.68;;;11.70;90.00;;;;;;4184073;28;20147;-68
2022/04/23 10:03:07;;;;;;;10.07;9.00;;;11.80;89.30;;;;;;4184360;28;20067;-67
2022/04/23 10:05:11;;;;;;;11.52;8.82;;;11.70;89.50;;;;;;4186057;28;20064;-67
2022/04/23 10:07:17;;;;;;;11.70;9.07;;;11.80;88.70;;;;;;4183133;28;20527;-67
2022/04/23 10:09:24;;;;;;;10.45;7.97;;;11.70;88.90;;;;;;4184313;28;20105;-68
2022/04/23 10:11:27;;;;;;;11.57;7.68;;;11.90;88.50;;;;;;4185812;28;20064;-67
2022/04/23 10:13:30;;;;;;;8.48;7.60;;;12.20;89.00;;;;;;4189401;28;20061;-66
2022/04/23 10:15:33;;;;;;;10.65;7.97;;;12.40;86.00;;;;;;4187688;28;20164;-66
2022/04/23 10:17:36;;;;;;;9.00;7.25;;;12.50;86.40;;;;;;4187096;28;20997;-68
2022/04/23 10:19:37;;;;;;;8.80;7.90;;;12.60;86.00;;;;;;4175580;28;20093;-66
2022/04/23 10:21:43;;;;;;;8.98;7.22;;;12.70;84.70;;;;;;4188787;28;20683;-67
2022/04/23 10:23:48;;;;;;;8.00;7.18;;;12.60;85.00;;;;;;4184654;28;20131;-67
2022/04/23 10:26:01;;;;;;;7.22;6.53;;;12.50;85.00;;;;;;4187277;28;20142;-67
2022/04/23 10:28:04;;;;;;;7.85;7.15;;;12.50;85.10;;;;;;4176205;28;20331;-68
2022/04/23 10:30:06;;;;;;;10.00;7.57;;;12.40;85.70;;;;;;4187213;28;20057;-68
2022/04/23 10:32:11;;;;;;;7.78;6.97;;;12.40;86.10;;;;;;4185071;28;20695;-68
2022/04/23 10:34:32;;;;;;;8.13;7.20;;;12.40;85.90;;;;;;4186070;28;20288;-68
2022/04/23 10:36:34;;;;;;;9.65;7.40;;;12.60;85.20;;;;;;4188279;28;20061;-68
2022/04/23 10:38:42;;;;;;;11.43;7.28;;;12.50;85.00;;;;;;4188747;28;20067;-68
2022/04/23 10:40:44;;;;;;;8.02;7.18;;;12.50;85.20;;;;;;4189363;28;20916;-66
2022/04/23 10:43:19;;;;;;;7.85;7.05;;;12.30;85.70;;;;;;4183047;28;20164;-67
2022/04/23 10:45:31;;;;;;;8.65;7.78;;;12.30;85.80;;;;;;4148244;28;20092;-67
2022/04/23 10:47:39;;;;;;;9.82;7.82;;;12.40;85.60;;;;;;4187367;28;20068;-68
2022/04/23 10:49:40;;;;;;;12.02;9.52;;;12.40;86.00;;;;;;4185531;28;20061;-68
2022/04/23 10:51:54;;;;;;;10.43;9.10;;;12.50;85.20;;;;;;4189098;28;20142;-68
2022/04/23 10:53:56;;;;;;;10.98;9.65;;;12.50;84.40;;;;;;4186873;28;20093;-67